Time;durP1;ratioP1;P1;durP2;ratioP2;P2;SDS_P1;SDS_P2;PMS_P1;PMS_P2;Temp;Humidity;BMP_temperature;BMP_pressure;BME280_temperature;BME280_humidity;BME280_pressure;Samples;Min_cycle;Max_cycle;Signal;HPM_P1;HPM_P2
2021/10/29 00:01:32;;;;;;;25.83;13.30;;;5.30;99.90;;;;;;5033206;28;20476;-50
2021/10/29 00:03:59;;;;;;;19.23;10.90;;;5.30;99.90;;;;;;5033066;28;20985;-51
2021/10/29 00:06:26;;;;;;;21.90;11.20;;;5.30;99.90;;;;;;5033554;28;20450;-51
2021/10/29 00:08:54;;;;;;;21.83;11.53;;;5.40;99.90;;;;;;5033070;28;20476;-50
2021/10/29 00:11:23;;;;;;;25.93;12.70;;;5.40;99.90;;;;;;5032503;28;20861;-50
2021/10/29 00:13:50;;;;;;;19.97;12.07;;;5.30;99.90;;;;;;5033103;28;20480;-50
2021/10/29 00:16:17;;;;;;;28.67;13.20;;;5.20;99.90;;;;;;5033183;28;20507;-50
2021/10/29 00:18:44;;;;;;;24.50;12.57;;;5.10;99.90;;;;;;5033158;28;20456;-51
2021/10/29 00:21:10;;;;;;;23.37;13.00;;;5.00;99.90;;;;;;5032429;28;20530;-51
2021/10/29 00:23:37;;;;;;;22.27;12.30;;;4.90;99.90;;;;;;5031602;28;20452;-50
2021/10/29 00:26:06;;;;;;;22.47;13.50;;;4.80;99.90;;;;;;5032487;28;20496;-51
2021/10/29 00:28:33;;;;;;;20.77;12.07;;;4.80;99.90;;;;;;5032427;28;20970;-50
2021/10/29 00:31:00;;;;;;;20.60;12.80;;;4.90;99.90;;;;;;5032306;28;20473;-51
2021/10/29 00:33:28;;;;;;;21.83;12.70;;;4.90;99.90;;;;;;5032256;28;20484;-51
2021/10/29 00:35:55;;;;;;;23.27;13.57;;;4.90;99.90;;;;;;5032556;28;20452;-51
2021/10/29 00:38:22;;;;;;;21.50;12.70;;;5.00;99.90;;;;;;5032346;28;20453;-50
2021/10/29 00:40:49;;;;;;;23.10;12.90;;;5.00;99.90;;;;;;5032239;28;20484;-51
2021/10/29 00:43:17;;;;;;;18.70;12.60;;;5.00;99.90;;;;;;5032682;28;20448;-51
2021/10/29 00:45:45;;;;;;;22.90;13.47;;;4.90;99.90;;;;;;5032522;28;20502;-50
2021/10/29 00:48:13;;;;;;;20.97;13.00;;;4.90;99.90;;;;;;5032162;28;20457;-50
2021/10/29 00:50:40;;;;;;;22.80;12.73;;;4.90;99.90;;;;;;5032184;28;20481;-51
2021/10/29 00:53:07;;;;;;;20.50;11.97;;;4.90;99.90;;;;;;5032116;28;20485;-51
2021/10/29 00:55:34;;;;;;;21.83;12.33;;;4.90;99.90;;;;;;5032185;28;20452;-51
2021/10/29 00:58:01;;;;;;;23.03;12.60;;;4.80;99.90;;;;;;5032713;28;20965;-50
2021/10/29 01:00:30;;;;;;;21.50;12.27;;;4.90;99.90;;;;;;5031449;28;20587;-50
2021/10/29 01:02:58;;;;;;;24.10;13.20;;;4.80;99.90;;;;;;5032146;28;20496;-51
2021/10/29 01:05:25;;;;;;;23.30;12.00;;;4.80;99.90;;;;;;5031142;28;20453;-50
2021/10/29 01:07:53;;;;;;;19.87;11.13;;;4.70;99.90;;;;;;5032369;28;20449;-50
2021/10/29 01:10:21;;;;;;;18.30;11.20;;;4.70;99.90;;;;;;5031321;28;20465;-50
2021/10/29 01:12:48;;;;;;;19.10;11.80;;;4.70;99.90;;;;;;5031879;28;20515;-50
2021/10/29 01:15:15;;;;;;;20.50;11.27;;;4.70;99.90;;;;;;5032085;28;20460;-50
2021/10/29 01:17:43;;;;;;;19.53;11.10;;;4.60;99.90;;;;;;5032191;28;20457;-51
2021/10/29 01:20:10;;;;;;;19.80;11.27;;;4.60;99.90;;;;;;5031734;28;20898;-50
2021/10/29 01:22:39;;;;;;;19.27;11.13;;;4.60;99.90;;;;;;5031375;28;21000;-51
2021/10/29 01:25:09;;;;;;;20.80;11.10;;;4.60;99.90;;;;;;5031495;28;20452;-51
2021/10/29 01:27:36;;;;;;;19.50;11.27;;;4.60;99.90;;;;;;5032384;28;20861;-51
2021/10/29 01:30:04;;;;;;;18.27;11.40;;;4.60;99.90;;;;;;5031743;28;20475;-50
2021/10/29 01:32:31;;;;;;;17.90;10.57;;;4.60;99.90;;;;;;5031312;28;20503;-51
2021/10/29 01:34:58;;;;;;;18.10;10.90;;;4.60;99.90;;;;;;5031883;28;20492;-50
2021/10/29 01:37:27;;;;;;;24.23;11.40;;;4.60;99.90;;;;;;5031766;28;20452;-50
2021/10/29 01:42:27;;;;;;;25.80;12.80;;;4.50;99.90;;;;;;5028383;28;20477;-53
2021/10/29 01:44:54;;;;;;;18.33;11.30;;;4.50;99.90;;;;;;5030778;28;20867;-53
2021/10/29 01:47:21;;;;;;;20.57;11.93;;;4.60;99.90;;;;;;5031144;28;20515;-53
2021/10/29 01:49:48;;;;;;;22.57;12.63;;;4.50;99.90;;;;;;5031481;28;20502;-53
2021/10/29 01:52:15;;;;;;;23.00;11.97;;;4.50;99.90;;;;;;5011776;28;20495;-53
2021/10/29 01:54:42;;;;;;;22.53;11.90;;;4.50;99.90;;;;;;5011823;28;21069;-53
2021/10/29 01:57:09;;;;;;;20.33;11.50;;;4.30;99.90;;;;;;5011817;28;20453;-53
2021/10/29 01:59:37;;;;;;;22.47;12.47;;;4.50;99.90;;;;;;5011314;28;21001;-53
2021/10/29 02:02:05;;;;;;;17.33;10.90;;;4.30;99.90;;;;;;5011196;28;20470;-53
2021/10/29 02:04:32;;;;;;;18.67;11.03;;;4.20;99.90;;;;;;5012250;28;20531;-53
2021/10/29 02:06:59;;;;;;;18.30;10.70;;;4.30;99.90;;;;;;5011707;28;20454;-53
2021/10/29 02:09:26;;;;;;;17.73;10.33;;;4.30;99.90;;;;;;5011101;28;20948;-53
2021/10/29 02:11:53;;;;;;;18.60;11.33;;;4.10;99.90;;;;;;5011381;28;20473;-53
2021/10/29 02:14:21;;;;;;;20.80;10.90;;;4.20;99.90;;;;;;5011934;28;20489;-53
2021/10/29 02:16:49;;;;;;;17.13;10.50;;;4.10;99.90;;;;;;5011829;28;20452;-53
2021/10/29 02:19:16;;;;;;;15.70;10.57;;;4.20;99.90;;;;;;5011353;28;20492;-53
2021/10/29 02:21:43;;;;;;;19.33;11.10;;;4.20;99.90;;;;;;5011480;28;20469;-53
2021/10/29 02:24:11;;;;;;;17.80;11.33;;;4.20;99.90;;;;;;5011974;28;20572;-53
2021/10/29 02:26:38;;;;;;;20.47;11.10;;;4.00;99.90;;;;;;5010888;28;20969;-53
2021/10/29 02:29:05;;;;;;;17.70;11.03;;;4.00;99.90;;;;;;5011515;28;20457;-53
2021/10/29 02:31:33;;;;;;;21.63;11.37;;;4.10;99.90;;;;;;5011340;28;20470;-53
2021/10/29 02:34:02;;;;;;;19.17;10.87;;;4.10;99.90;;;;;;5011114;28;20487;-53
2021/10/29 02:36:29;;;;;;;18.00;10.13;;;4.00;99.90;;;;;;5011495;28;20545;-53
2021/10/29 02:38:56;;;;;;;19.83;11.33;;;4.00;99.90;;;;;;5011881;28;20453;-53
2021/10/29 02:41:23;;;;;;;18.60;10.70;;;4.10;99.90;;;;;;5011035;28;20484;-53
2021/10/29 02:43:50;;;;;;;20.60;11.40;;;4.00;99.90;;;;;;5011132;28;20453;-53
2021/10/29 02:46:17;;;;;;;17.23;11.13;;;4.10;99.90;;;;;;5010981;28;20507;-53
2021/10/29 02:48:44;;;;;;;16.10;10.47;;;4.00;99.90;;;;;;5011432;28;20453;-53
2021/10/29 02:51:13;;;;;;;20.70;11.97;;;4.00;99.90;;;;;;5010880;28;20915;-53
2021/10/29 02:53:40;;;;;;;18.30;10.90;;;3.90;99.90;;;;;;5011373;28;20489;-53
2021/10/29 02:56:08;;;;;;;19.70;11.20;;;3.90;99.90;;;;;;5014750;28;20458;-53
2021/10/29 02:58:35;;;;;;;20.07;11.27;;;3.90;99.90;;;;;;5014210;28;20452;-53
2021/10/29 03:01:03;;;;;;;20.87;11.33;;;3.80;99.90;;;;;;5014487;28;20480;-53
2021/10/29 03:03:30;;;;;;;19.30;11.23;;;3.80;99.90;;;;;;5014438;28;20457;-53
2021/10/29 03:05:57;;;;;;;16.60;9.93;;;3.80;99.90;;;;;;5014721;28;20453;-53
2021/10/29 03:08:26;;;;;;;17.90;11.37;;;3.90;99.90;;;;;;5014181;28;20453;-53
2021/10/29 03:10:54;;;;;;;17.67;11.30;;;3.90;99.90;;;;;;5014401;28;20473;-53
2021/10/29 03:13:21;;;;;;;18.37;11.10;;;3.90;99.90;;;;;;5014449;28;20504;-53
2021/10/29 03:15:49;;;;;;;18.67;10.80;;;3.70;99.90;;;;;;5013943;28;21365;-53
2021/10/29 03:18:16;;;;;;;15.90;11.03;;;3.80;99.90;;;;;;5014383;28;20454;-53
2021/10/29 03:20:44;;;;;;;19.37;11.30;;;3.70;99.90;;;;;;5014254;28;20488;-53
2021/10/29 03:23:12;;;;;;;18.00;11.30;;;3.80;99.90;;;;;;5014214;28;20454;-53
2021/10/29 03:25:41;;;;;;;19.60;12.07;;;3.60;99.90;;;;;;5014541;28;20460;-53
2021/10/29 03:28:08;;;;;;;18.40;11.50;;;3.70;99.90;;;;;;5014484;28;20955;-52
2021/10/29 03:30:36;;;;;;;17.20;10.40;;;3.60;99.90;;;;;;5014270;28;20476;-53
2021/10/29 03:33:03;;;;;;;16.97;10.73;;;3.60;99.90;;;;;;5014124;28;20518;-53
2021/10/29 03:35:31;;;;;;;15.97;10.10;;;3.60;99.90;;;;;;5014076;28;20583;-53
2021/10/29 03:38:08;;;;;;;19.17;10.83;;;3.70;99.90;;;;;;5013920;28;20481;-53
2021/10/29 03:40:43;;;;;;;17.03;10.93;;;3.70;99.90;;;;;;5013743;28;21010;-53
2021/10/29 03:43:17;;;;;;;18.57;10.30;;;3.70;99.90;;;;;;5014050;28;20452;-53
2021/10/29 03:45:49;;;;;;;18.27;10.60;;;3.60;99.90;;;;;;5013833;28;20573;-53
2021/10/29 03:48:17;;;;;;;20.60;10.93;;;3.70;99.90;;;;;;5013668;28;20955;-53
2021/10/29 03:50:50;;;;;;;17.60;10.90;;;3.60;99.90;;;;;;5013554;28;20509;-53
2021/10/29 03:53:28;;;;;;;17.63;10.87;;;3.60;99.90;;;;;;5013941;28;20936;-53
2021/10/29 03:55:58;;;;;;;21.40;11.57;;;3.80;99.90;;;;;;5010069;28;20450;-53
2021/10/29 03:58:27;;;;;;;19.50;11.00;;;3.80;99.90;;;;;;4994284;28;20454;-53
2021/10/29 04:00:54;;;;;;;19.13;11.17;;;3.80;99.90;;;;;;4993752;28;20473;-53
2021/10/29 04:03:22;;;;;;;16.77;9.40;;;3.70;99.90;;;;;;4994294;28;20461;-53
2021/10/29 04:05:49;;;;;;;16.93;10.70;;;3.80;99.90;;;;;;4993365;28;20446;-53
2021/10/29 04:08:16;;;;;;;20.80;10.70;;;3.80;99.90;;;;;;4993979;28;20509;-53
2021/10/29 04:10:45;;;;;;;17.00;10.27;;;3.60;99.90;;;;;;5012846;28;20495;-53
2021/10/29 04:13:12;;;;;;;15.70;9.60;;;3.50;99.90;;;;;;5013558;28;20488;-53
2021/10/29 04:15:41;;;;;;;17.07;9.83;;;3.60;99.90;;;;;;5013396;28;20590;-53
2021/10/29 04:18:09;;;;;;;16.33;10.40;;;3.70;99.90;;;;;;5013433;28;20540;-53
2021/10/29 04:20:36;;;;;;;15.80;10.00;;;3.80;99.90;;;;;;5013270;28;20516;-53
2021/10/29 04:23:04;;;;;;;18.80;11.37;;;3.80;99.90;;;;;;5013686;28;20453;-53
2021/10/29 04:25:31;;;;;;;19.13;11.17;;;3.90;99.90;;;;;;5012940;28;20496;-53
2021/10/29 04:27:59;;;;;;;16.03;10.50;;;3.60;99.90;;;;;;5013344;28;20460;-53
2021/10/29 04:30:29;;;;;;;18.03;10.80;;;3.80;99.90;;;;;;5012910;28;20511;-53
2021/10/29 04:32:57;;;;;;;18.40;10.63;;;3.80;99.90;;;;;;5012820;28;20457;-53
2021/10/29 04:35:24;;;;;;;16.73;10.83;;;3.90;99.90;;;;;;5013179;28;20485;-53
2021/10/29 04:37:52;;;;;;;15.63;10.60;;;3.90;99.90;;;;;;5012960;28;20456;-53
2021/10/29 04:40:19;;;;;;;19.20;11.03;;;3.90;99.90;;;;;;5012665;28;20523;-53
2021/10/29 04:42:46;;;;;;;19.53;11.00;;;4.00;99.90;;;;;;5012562;28;20454;-53
2021/10/29 04:45:15;;;;;;;17.10;9.40;;;4.00;99.90;;;;;;5012481;28;20454;-53
2021/10/29 04:47:42;;;;;;;18.63;11.10;;;4.00;99.90;;;;;;5012793;28;20453;-53
2021/10/29 04:50:11;;;;;;;22.17;11.40;;;4.00;99.90;;;;;;5012577;28;20450;-53
2021/10/29 04:52:38;;;;;;;20.00;11.17;;;3.90;99.90;;;;;;5012541;28;20499;-53
2021/10/29 04:55:06;;;;;;;18.60;11.43;;;3.90;99.90;;;;;;5012496;28;20489;-53
2021/10/29 04:57:34;;;;;;;18.40;9.77;;;4.00;99.90;;;;;;5011661;28;20878;-53
2021/10/29 05:00:04;;;;;;;22.00;10.83;;;4.20;99.90;;;;;;5011890;28;20512;-53
2021/10/29 05:02:31;;;;;;;18.00;10.13;;;4.20;99.90;;;;;;5004691;28;20482;-53
2021/10/29 05:04:59;;;;;;;17.00;11.60;;;4.30;99.90;;;;;;5023363;28;20530;-53
2021/10/29 05:07:27;;;;;;;19.40;11.40;;;4.30;99.90;;;;;;5029473;28;20453;-53
2021/10/29 05:09:54;;;;;;;22.63;13.13;;;4.20;99.90;;;;;;5016372;28;20450;-53
2021/10/29 05:12:21;;;;;;;22.70;11.93;;;4.20;99.90;;;;;;5011651;28;20453;-53
2021/10/29 05:14:48;;;;;;;21.20;12.43;;;4.30;99.90;;;;;;5001209;28;20480;-53
2021/10/29 05:17:15;;;;;;;24.43;12.17;;;4.40;99.90;;;;;;5012097;28;20451;-53
2021/10/29 05:19:42;;;;;;;21.90;12.80;;;4.40;99.90;;;;;;5011883;28;20868;-53
2021/10/29 05:22:09;;;;;;;21.10;11.70;;;4.50;99.90;;;;;;5012026;28;20523;-54
2021/10/29 05:24:38;;;;;;;23.87;12.80;;;4.50;99.90;;;;;;5011917;28;20871;-53
2021/10/29 05:27:06;;;;;;;20.37;12.50;;;4.40;99.90;;;;;;5012020;28;20551;-53
2021/10/29 05:29:33;;;;;;;22.60;13.10;;;4.40;99.90;;;;;;5007390;28;20522;-53
2021/10/29 05:32:01;;;;;;;22.00;12.57;;;4.50;99.90;;;;;;5011547;28;20472;-53
2021/10/29 05:34:29;;;;;;;24.77;12.33;;;4.50;99.90;;;;;;5011883;28;20559;-53
2021/10/29 05:36:56;;;;;;;22.40;12.03;;;4.50;99.90;;;;;;5011864;28;20449;-53
2021/10/29 05:39:23;;;;;;;21.53;11.80;;;4.50;99.90;;;;;;5012122;28;20464;-53
2021/10/29 05:41:52;;;;;;;27.70;11.80;;;4.50;99.90;;;;;;5011571;28;20512;-53
2021/10/29 05:44:20;;;;;;;17.80;10.30;;;4.60;99.90;;;;;;5012267;28;20449;-53
2021/10/29 05:46:47;;;;;;;23.53;10.43;;;4.70;99.90;;;;;;5011409;28;20487;-53
2021/10/29 05:49:15;;;;;;;25.67;12.40;;;4.80;99.90;;;;;;5011681;28;20481;-53
2021/10/29 05:51:45;;;;;;;22.70;12.10;;;4.80;99.90;;;;;;5011162;28;20481;-53
2021/10/29 05:54:14;;;;;;;22.17;12.50;;;4.80;99.90;;;;;;5009539;28;20484;-53
2021/10/29 05:56:42;;;;;;;26.13;12.27;;;5.00;99.90;;;;;;5011692;28;20838;-53
2021/10/29 05:59:10;;;;;;;22.70;12.20;;;5.00;99.90;;;;;;5012014;28;20446;-53
2021/10/29 06:01:41;;;;;;;24.67;13.00;;;5.00;99.90;;;;;;5011198;28;20903;-53
2021/10/29 06:04:08;;;;;;;23.53;12.03;;;5.10;99.90;;;;;;5012006;28;20468;-53
2021/10/29 06:06:35;;;;;;;25.87;13.50;;;5.10;99.90;;;;;;5011778;28;20943;-53
2021/10/29 06:09:02;;;;;;;22.87;13.63;;;5.10;99.90;;;;;;5011441;28;20512;-53
2021/10/29 06:11:29;;;;;;;32.20;14.13;;;5.20;99.90;;;;;;5011820;28;20470;-53
2021/10/29 06:13:56;;;;;;;30.40;14.70;;;5.20;99.90;;;;;;5012010;28;20453;-53
2021/10/29 06:16:25;;;;;;;25.60;14.17;;;5.20;99.90;;;;;;5011510;28;20555;-53
2021/10/29 06:18:52;;;;;;;33.47;14.40;;;5.30;99.90;;;;;;5011259;28;20460;-53
2021/10/29 06:21:28;;;;;;;26.23;13.90;;;5.40;99.90;;;;;;5011067;28;20480;-53
2021/10/29 06:23:59;;;;;;;26.13;13.60;;;5.30;99.90;;;;;;5010580;28;20882;-53
2021/10/29 06:26:37;;;;;;;23.93;12.70;;;5.40;99.90;;;;;;4992161;28;20446;-53
2021/10/29 06:29:04;;;;;;;26.90;13.30;;;5.50;99.90;;;;;;5006485;28;20846;-53
2021/10/29 06:31:33;;;;;;;28.80;13.60;;;5.50;99.90;;;;;;5015117;28;20536;-53
2021/10/29 06:34:00;;;;;;;26.50;11.80;;;5.50;99.90;;;;;;5014766;28;20461;-53
2021/10/29 06:36:27;;;;;;;30.00;14.60;;;5.50;99.90;;;;;;5015469;28;20490;-53
2021/10/29 06:38:54;;;;;;;33.30;15.00;;;5.60;99.90;;;;;;5014962;28;20453;-53
2021/10/29 06:41:21;;;;;;;26.07;15.57;;;5.70;99.90;;;;;;5014289;28;20477;-53
2021/10/29 06:44:00;;;;;;;24.43;14.67;;;5.70;99.90;;;;;;5015138;28;20990;-53
2021/10/29 06:46:35;;;;;;;25.63;13.90;;;5.70;99.90;;;;;;5014570;28;20472;-53
2021/10/29 07:00:19;;;;;;;30.23;16.73;;;6.20;99.90;;;;;;5006593;28;20903;-53
2021/10/29 07:41:36;;;;;;;37.83;17.33;;;7.10;99.90;;;;;;4954041;28;20479;-55
2021/10/29 07:44:12;;;;;;;37.10;17.27;;;7.10;99.90;;;;;;5013712;28;20503;-56
2021/10/29 07:46:39;;;;;;;40.80;17.67;;;7.00;99.90;;;;;;5007375;28;20499;-55
2021/10/29 07:49:07;;;;;;;40.03;18.47;;;7.10;99.90;;;;;;5012011;28;20457;-55
2021/10/29 07:51:34;;;;;;;42.93;17.63;;;6.90;99.90;;;;;;5071332;22;20580;-53
2021/10/29 07:54:03;;;;;;;43.37;19.47;;;6.90;99.90;;;;;;5082475;28;20510;-53
2021/10/29 07:56:30;;;;;;;42.27;19.37;;;6.90;99.90;;;;;;5085435;28;20515;-52
2021/10/29 07:58:58;;;;;;;43.23;19.23;;;6.90;99.90;;;;;;5093202;28;20457;-53
2021/10/29 08:01:25;;;;;;;46.63;19.43;;;6.90;99.90;;;;;;5080708;28;20478;-52
2021/10/29 08:03:52;;;;;;;43.90;19.17;;;6.90;99.90;;;;;;5073311;28;20497;-52
2021/10/29 08:06:19;;;;;;;48.80;19.60;;;7.00;99.90;;;;;;5073220;28;20863;-52
2021/10/29 08:08:46;;;;;;;39.50;18.63;;;7.10;99.90;;;;;;5072088;28;20458;-53
2021/10/29 08:11:15;;;;;;;43.90;18.47;;;7.20;99.90;;;;;;5072515;28;20893;-52
2021/10/29 08:13:42;;;;;;;40.10;17.70;;;7.30;99.90;;;;;;5073202;28;20479;-53
2021/10/29 08:16:09;;;;;;;45.53;18.50;;;7.40;99.90;;;;;;5071291;28;20500;-52
2021/10/29 08:18:43;;;;;;;48.37;17.93;;;7.40;99.90;;;;;;5072809;28;20502;-52
2021/10/29 08:21:13;;;;;;;39.93;18.03;;;7.60;99.90;;;;;;5072812;28;20516;-52
2021/10/29 08:23:41;;;;;;;42.27;19.00;;;7.70;99.90;;;;;;5072981;28;20475;-52
2021/10/29 08:26:08;;;;;;;39.80;18.03;;;7.70;99.90;;;;;;5072891;28;20534;-53
2021/10/29 08:28:36;;;;;;;38.27;18.33;;;7.70;99.90;;;;;;5072277;28;20446;-52
2021/10/29 08:31:03;;;;;;;38.50;18.60;;;7.80;99.90;;;;;;5072475;28;20544;-52
2021/10/29 08:33:30;;;;;;;40.07;17.70;;;7.70;99.90;;;;;;5072588;28;20965;-53
2021/10/29 08:35:57;;;;;;;37.07;16.73;;;7.80;99.90;;;;;;5072538;28;20489;-53
2021/10/29 08:38:24;;;;;;;44.03;18.97;;;7.60;99.90;;;;;;5072821;28;20496;-53
2021/10/29 08:40:51;;;;;;;34.93;17.30;;;7.60;99.90;;;;;;5072560;28;20471;-52
2021/10/29 08:43:19;;;;;;;37.90;17.47;;;7.70;99.90;;;;;;5071793;28;20450;-53
2021/10/29 08:45:48;;;;;;;40.80;19.13;;;7.90;99.90;;;;;;5072342;28;20534;-52
2021/10/29 08:48:15;;;;;;;41.73;18.50;;;7.90;99.90;;;;;;5072698;28;20446;-53
2021/10/29 08:50:42;;;;;;;36.73;17.70;;;7.90;99.90;;;;;;5072061;28;20879;-52
2021/10/29 08:53:09;;;;;;;39.53;18.67;;;7.90;99.90;;;;;;5071365;28;20460;-52
2021/10/29 08:55:37;;;;;;;41.23;18.90;;;7.90;99.90;;;;;;5071380;28;20537;-52
2021/10/29 08:58:07;;;;;;;36.30;19.47;;;7.90;99.90;;;;;;5071183;28;20455;-54
2021/10/29 09:00:38;;;;;;;38.77;19.20;;;8.00;99.90;;;;;;5071191;28;20534;-52
2021/10/29 09:03:09;;;;;;;33.43;17.00;;;8.00;99.90;;;;;;5071577;28;20447;-52
2021/10/29 09:05:45;;;;;;;39.20;18.37;;;8.10;99.90;;;;;;5071521;28;20557;-52
2021/10/29 09:08:21;;;;;;;41.37;20.53;;;8.00;99.90;;;;;;5071306;28;20857;-52
2021/10/29 09:33:51;;;;;;;35.83;17.40;;;8.80;99.90;;;;;;5071101;28;20498;-54
2021/10/29 09:36:29;;;;;;;39.20;19.30;;;8.90;99.90;;;;;;5070992;28;20531;-53
2021/10/29 09:39:03;;;;;;;39.00;18.20;;;9.00;99.90;;;;;;5070784;28;20477;-52
2021/10/29 09:41:30;;;;;;;34.00;18.20;;;9.50;99.90;;;;;;5070669;28;20470;-54
2021/10/29 09:43:59;;;;;;;34.20;17.60;;;10.10;99.90;;;;;;5070106;28;20885;-54
2021/10/29 09:46:38;;;;;;;41.70;18.77;;;10.40;99.90;;;;;;5070834;28;20492;-52
2021/10/29 09:49:11;;;;;;;39.23;18.87;;;10.40;99.90;;;;;;5071038;28;20493;-53
2021/10/29 09:51:51;;;;;;;37.93;18.27;;;10.10;99.90;;;;;;5033012;28;1109193;-51
2021/10/29 09:54:21;;;;;;;36.00;17.80;;;10.50;99.90;;;;;;5071539;28;20196;-52
2021/10/29 09:56:54;;;;;;;36.97;19.37;;;10.10;99.90;;;;;;5071256;28;20532;-52
2021/10/29 09:59:22;;;;;;;36.27;17.80;;;10.30;99.90;;;;;;5071594;28;20483;-52
2021/10/29 10:01:49;;;;;;;37.70;18.70;;;10.60;99.90;;;;;;5071202;28;20478;-52
2021/10/29 10:04:18;;;;;;;37.40;18.17;;;10.60;99.90;;;;;;5072532;28;20458;-52
2021/10/29 10:06:47;;;;;;;39.77;19.30;;;10.60;99.90;;;;;;5075770;28;20442;-52
2021/10/29 10:09:15;;;;;;;37.07;17.93;;;10.00;99.90;;;;;;5074967;28;20542;-52
2021/10/29 10:11:45;;;;;;;32.67;18.90;;;10.00;99.90;;;;;;5072358;28;20473;-52
2021/10/29 10:14:14;;;;;;;40.43;16.60;;;10.30;99.90;;;;;;5075197;28;20496;-52
2021/10/29 10:16:43;;;;;;;32.37;17.20;;;10.50;99.90;;;;;;5075059;28;20489;-52
2021/10/29 10:19:10;;;;;;;33.67;18.17;;;10.70;99.90;;;;;;5075149;28;20519;-52
2021/10/29 10:21:41;;;;;;;42.83;20.60;;;10.70;99.90;;;;;;5074401;28;21012;-52
2021/10/29 10:24:14;;;;;;;34.00;17.57;;;10.70;99.90;;;;;;5074639;28;20454;-52
2021/10/29 10:26:54;;;;;;;35.03;17.77;;;10.90;99.90;;;;;;5074861;28;20534;-52
2021/10/29 10:43:38;;;;;;;34.63;18.03;;;10.50;99.90;;;;;;5067217;28;20525;-52
2021/10/29 10:46:12;;;;;;;35.70;18.43;;;10.70;99.90;;;;;;5063509;28;20812;-51
2021/10/29 10:48:45;;;;;;;33.87;17.50;;;10.90;99.90;;;;;;5074878;28;20450;-52
2021/10/29 10:51:46;;;;;;;33.30;16.67;;;11.10;99.90;;;;;;5073541;28;20555;-52
2021/10/29 10:54:26;;;;;;;33.17;17.43;;;11.30;99.90;;;;;;5073750;28;20488;-52
2021/10/29 10:57:09;;;;;;;41.30;18.07;;;11.10;99.90;;;;;;5071471;28;21058;-52
2021/10/29 11:00:04;;;;;;;36.90;18.77;;;10.90;99.90;;;;;;5071879;28;20450;-52
2021/10/29 11:05:20;;;;;;;36.90;21.10;;;10.60;99.90;;;;;;5072138;28;20452;-52
2021/10/29 11:10:57;;;;;;;36.67;18.57;;;10.80;99.90;;;;;;5073473;28;20837;-52
2021/10/29 11:13:27;;;;;;;38.17;20.60;;;10.80;99.90;;;;;;5071557;28;20454;-52
2021/10/29 11:16:05;;;;;;;41.37;19.87;;;10.60;99.90;;;;;;5072871;28;20481;-52
2021/10/29 11:18:39;;;;;;;40.23;19.20;;;10.60;99.90;;;;;;5074373;28;20479;-52
2021/10/29 11:21:12;;;;;;;41.00;21.67;;;10.30;99.90;;;;;;5073603;28;21010;-52
2021/10/29 11:23:48;;;;;;;40.97;18.93;;;10.20;99.90;;;;;;5073868;28;20451;-52
2021/10/29 11:26:25;;;;;;;38.70;19.17;;;10.10;99.90;;;;;;5073680;28;20450;-52
2021/10/29 11:28:54;;;;;;;38.00;19.17;;;10.20;99.90;;;;;;5073686;28;20446;-52
2021/10/29 11:31:26;;;;;;;51.80;25.30;;;10.00;99.90;;;;;;5073593;28;20478;-52
2021/10/29 11:33:56;;;;;;;45.20;21.37;;;9.90;99.90;;;;;;5073122;28;20534;-52
2021/10/29 11:36:25;;;;;;;40.07;22.57;;;10.00;99.90;;;;;;5073432;28;20487;-53
2021/10/29 11:38:53;;;;;;;53.47;29.57;;;10.00;99.90;;;;;;5073709;28;20447;-53
2021/10/29 11:41:21;;;;;;;43.00;19.73;;;9.80;99.90;;;;;;5072922;28;20934;-53
2021/10/29 11:43:49;;;;;;;39.23;20.20;;;9.80;99.90;;;;;;5073212;28;20451;-53
2021/10/29 11:46:18;;;;;;;37.50;18.83;;;9.90;99.90;;;;;;5073042;28;20451;-53
2021/10/29 11:48:56;;;;;;;41.30;20.00;;;10.10;99.90;;;;;;5073113;28;20496;-53
2021/10/29 11:51:24;;;;;;;41.80;21.00;;;10.20;99.90;;;;;;5073131;28;20984;-53
2021/10/29 11:53:55;;;;;;;41.13;20.03;;;10.10;99.90;;;;;;5073621;28;20541;-53
2021/10/29 11:56:34;;;;;;;43.23;19.87;;;10.00;99.90;;;;;;5073027;28;20488;-53
2021/10/29 12:05:49;;;;;;;45.43;20.97;;;10.00;99.90;;;;;;5072616;28;20460;-53
2021/10/29 12:07:47;;;;;;;41.97;20.43;;;9.90;99.90;;;;;;5066804;28;20465;-52
2021/10/29 12:10:18;;;;;;;45.37;20.80;;;10.00;99.90;;;;;;5072250;28;20486;-52
2021/10/29 12:12:46;;;;;;;50.67;23.00;;;9.80;99.90;;;;;;5071102;28;20484;-52
2021/10/29 12:15:16;;;;;;;47.50;22.93;;;9.70;99.90;;;;;;5072580;28;20491;-52
2021/10/29 12:17:51;;;;;;;48.57;21.33;;;9.60;99.90;;;;;;5072878;28;20485;-53
2021/10/29 12:20:22;;;;;;;49.27;22.10;;;9.40;99.90;;;;;;5072972;28;20453;-52
2021/10/29 12:22:51;;;;;;;51.60;23.50;;;9.40;99.90;;;;;;5072917;28;20481;-53
2021/10/29 12:25:26;;;;;;;50.57;22.60;;;9.30;99.90;;;;;;5072568;28;20462;-52
2021/10/29 12:27:58;;;;;;;58.53;25.70;;;9.00;99.90;;;;;;5072050;28;20451;-52
2021/10/29 12:30:30;;;;;;;53.37;23.93;;;9.10;99.90;;;;;;5068866;28;20831;-52
2021/10/29 12:53:07;;;;;;;59.83;23.80;;;8.90;99.90;;;;;;5071975;28;20448;-52
2021/10/29 12:58:58;;;;;;;58.97;23.70;;;8.90;99.90;;;;;;5072426;28;20461;-52
2021/10/29 13:01:33;;;;;;;56.33;24.73;;;9.00;99.90;;;;;;5071478;28;21056;-51
2021/10/29 13:04:02;;;;;;;51.27;23.07;;;9.30;99.90;;;;;;5072324;28;20465;-52
2021/10/29 13:06:33;;;;;;;54.63;24.60;;;9.30;99.90;;;;;;5072211;28;20861;-52
2021/10/29 13:09:02;;;;;;;53.53;23.70;;;9.30;99.90;;;;;;5071708;28;20447;-53
2021/10/29 13:11:37;;;;;;;55.03;23.80;;;9.40;99.90;;;;;;5071295;28;20471;-53
2021/10/29 13:14:06;;;;;;;57.60;24.23;;;9.30;99.90;;;;;;5071864;28;20426;-52
2021/10/29 13:16:34;;;;;;;58.03;24.70;;;9.20;99.90;;;;;;5071839;28;20490;-52
2021/10/29 13:24:55;;;;;;;50.17;22.23;;;9.00;99.90;;;;;;5071513;28;20448;-52
2021/10/29 13:36:01;;;;;;;57.07;24.37;;;9.30;99.90;;;;;;5071740;28;20458;-52
2021/10/29 13:52:25;;;;;;;56.20;24.83;;;9.40;99.90;;;;;;5082348;22;20557;-52
2021/10/29 13:55:14;;;;;;;53.73;24.23;;;9.50;99.90;;;;;;5051088;28;20483;-52
2021/10/29 13:57:58;;;;;;;50.40;24.10;;;9.10;99.90;;;;;;5051116;28;20582;-52
2021/10/29 14:28:18;;;;;;;59.03;25.57;;;9.60;99.90;;;;;;5050654;28;20948;-54
2021/10/29 14:30:54;;;;;;;55.00;26.47;;;9.70;99.90;;;;;;5050080;28;20459;-54
2021/10/29 14:33:24;;;;;;;50.40;23.80;;;9.80;99.90;;;;;;5050574;28;20956;-54
2021/10/29 14:35:54;;;;;;;51.43;25.10;;;9.80;99.90;;;;;;5050652;28;20454;-54
2021/10/29 14:38:29;;;;;;;54.13;25.67;;;9.70;99.90;;;;;;5050230;28;20573;-54
2021/10/29 14:40:59;;;;;;;56.10;25.23;;;9.70;99.90;;;;;;5031070;28;20448;-55
2021/10/29 14:43:30;;;;;;;58.00;25.43;;;9.80;99.90;;;;;;5048138;28;20468;-54
2021/10/29 14:46:05;;;;;;;54.90;25.97;;;9.80;99.90;;;;;;5049616;28;20459;-54
2021/10/29 14:48:40;;;;;;;52.43;25.67;;;9.80;99.90;;;;;;5031171;28;20447;-54
2021/10/29 15:16:04;;;;;;;59.00;25.97;;;10.00;99.90;;;;;;5053899;28;20808;-52
2021/10/29 15:29:51;;;;;;;52.13;25.53;;;9.90;99.90;;;;;;5022941;28;20469;-52
2021/10/29 15:46:34;;;;;;;47.50;24.33;;;9.70;99.90;;;;;;5016178;28;20437;-52
2021/10/29 15:49:06;;;;;;;50.87;24.53;;;9.80;99.90;;;;;;5045146;28;20489;-53
2021/10/29 15:51:35;;;;;;;53.00;25.83;;;9.70;99.90;;;;;;5052536;28;20489;-52
2021/10/29 15:54:05;;;;;;;60.90;26.27;;;9.70;99.90;;;;;;5053025;28;20988;-53
2021/10/29 15:56:36;;;;;;;51.23;24.40;;;9.60;99.90;;;;;;5052896;28;20513;-52
2021/10/29 15:59:15;;;;;;;48.87;24.23;;;9.60;99.90;;;;;;5053348;28;20460;-52
2021/10/29 16:01:46;;;;;;;56.67;26.70;;;9.50;99.90;;;;;;5051885;28;20999;-52
2021/10/29 16:17:58;;;;;;;58.40;26.00;;;9.40;99.90;;;;;;5052673;28;20910;-53
2021/10/29 16:20:27;;;;;;;50.63;24.47;;;9.30;99.90;;;;;;5051912;28;20885;-52
2021/10/29 16:22:57;;;;;;;55.43;28.07;;;9.30;99.90;;;;;;5048653;28;20459;-52
2021/10/29 16:25:29;;;;;;;58.47;27.13;;;9.30;99.90;;;;;;5044269;28;20451;-52
2021/10/29 16:27:57;;;;;;;58.70;27.10;;;9.20;99.90;;;;;;5052727;28;20968;-52
2021/10/29 16:30:26;;;;;;;52.77;25.63;;;9.20;99.90;;;;;;5052419;28;20452;-52
2021/10/29 16:33:07;;;;;;;55.17;26.80;;;9.20;99.90;;;;;;5052011;28;20472;-52
2021/10/29 16:35:38;;;;;;;56.97;26.43;;;9.10;99.90;;;;;;5052305;28;20448;-52
2021/10/29 16:38:07;;;;;;;60.20;26.80;;;9.10;99.90;;;;;;5052685;28;20483;-52
2021/10/29 16:40:34;;;;;;;59.33;26.07;;;9.20;99.90;;;;;;5052592;28;20439;-52
2021/10/29 16:43:05;;;;;;;61.23;28.03;;;9.20;99.90;;;;;;5052261;28;20475;-52
2021/10/29 16:45:32;;;;;;;59.80;27.30;;;9.20;99.90;;;;;;5052215;28;21023;-52
2021/10/29 16:47:59;;;;;;;63.90;28.50;;;9.20;99.90;;;;;;5051498;28;20451;-52
2021/10/29 16:50:26;;;;;;;64.73;30.67;;;9.10;99.90;;;;;;5051847;28;20474;-52
2021/10/29 16:52:55;;;;;;;74.70;31.50;;;8.90;99.90;;;;;;5050971;28;20490;-52